Liberty, Texas
Current Conditions -  °F | °C
As of 5:53 AM on Sunday 23 Nov 2014 (Local Time) from KIAH Reporting Station
Overcast Overcast  
Wind Chill: 62°   Ceiling: 700
Heat Index: 62°   Visibility: 10mi
Dew Point: 60°   Wind: 8mph
Humidity: 93%   Direction: 190°S
Pressure: 29.66"   Gusts: NA
Location:  30.06°N, 94.79°W
Report Text: KIAH 231153Z 19007KT 10SM OVC007 17/16 A2966 RMK AO2 SLP042 60023 70034 T01670156 10183 20161 53002
Loading
Personal Weather Stations






























Interactive Weather Map New forecast layout! Learn more

10-Day Weather Forecast

Advertisements
Track Severe Weather on mobile